createdAt,value
2016-05-02T00:00:10.116Z,34.58
2016-05-02T00:01:10.227Z,34.58
2016-05-02T00:02:10.027Z,34.58
2016-05-02T00:03:10.139Z,34.67
2016-05-02T00:04:10.080Z,34.58
2016-05-02T00:05:13.035Z,34.67
2016-05-02T00:06:09.835Z,34.39
2016-05-02T00:07:09.947Z,34.29
2016-05-02T00:08:09.902Z,34.29
2016-05-02T00:09:09.843Z,34.39
2016-05-02T00:10:09.783Z,34.48
2016-05-02T00:11:09.754Z,34.29
2016-05-02T00:12:09.710Z,34.29
2016-05-02T00:13:09.651Z,34.39
2016-05-02T00:14:09.590Z,34.29
2016-05-02T00:15:09.561Z,34.29
2016-05-02T00:16:09.534Z,34.39
2016-05-02T00:17:09.521Z,34.29
2016-05-02T00:18:09.414Z,34.48
2016-05-02T00:19:09.370Z,34.29
2016-05-02T00:20:09.309Z,34.39
2016-05-02T00:21:09.266Z,34.39
2016-05-02T00:22:09.205Z,34.29
2016-05-02T00:23:09.178Z,34.39
2016-05-02T00:24:09.102Z,34.29
2016-05-02T00:25:09.058Z,34.29
2016-05-02T00:26:09.030Z,34.39
2016-05-02T00:27:08.813Z,34.39
2016-05-02T00:28:08.924Z,34.39
2016-05-02T00:29:08.865Z,34.58
2016-05-02T00:30:08.853Z,34.2
2016-05-02T00:31:08.621Z,34.48
2016-05-02T00:32:08.561Z,34.39
2016-05-02T00:33:08.688Z,34.48
2016-05-02T00:34:11.644Z,34.39
2016-05-02T00:35:11.599Z,34.58
2016-05-02T00:36:08.556Z,34.39
2016-05-02T00:37:08.480Z,34.39
2016-05-02T00:38:08.437Z,34.48
2016-05-02T00:39:08.376Z,34.39
2016-05-02T00:40:08.332Z,34.39
2016-05-02T00:41:08.287Z,34.2
2016-05-02T00:42:08.244Z,34.39
2016-05-02T00:43:08.184Z,34.39
2016-05-02T00:44:08.140Z,34.29
2016-05-02T00:45:08.095Z,34.39
2016-05-02T00:46:08.067Z,34.39
2016-05-02T00:47:08.007Z,34.39
2016-05-02T00:48:07.947Z,34.39
2016-05-02T00:49:07.919Z,34.29
2016-05-02T00:50:16.859Z,34.39
2016-05-02T00:51:07.815Z,34.29
2016-05-02T00:52:10.786Z,34.29
2016-05-02T00:53:07.711Z,34.29
2016-05-02T00:54:07.511Z,34.29
2016-05-02T00:55:07.622Z,34.2
2016-05-02T00:56:07.578Z,34.29
2016-05-02T00:57:07.519Z,34.29
2016-05-02T00:58:07.474Z,34.29
2016-05-02T00:59:07.258Z,34.29
2016-05-02T01:00:07.371Z,34.29
2016-05-02T01:01:07.310Z,34.29
2016-05-02T01:02:07.126Z,34.29
2016-05-02T01:03:07.247Z,34.29
2016-05-02T01:04:07.247Z,34.29
2016-05-02T01:05:07.216Z,34.29
2016-05-02T01:06:07.216Z,34.39
2016-05-02T01:07:07.231Z,34.29
2016-05-02T01:08:07.194Z,34.29
2016-05-02T01:09:07.166Z,34.29
2016-05-02T01:10:07.138Z,34.29
2016-05-02T01:11:07.110Z,34.29
2016-05-02T01:12:10.082Z,34.39
2016-05-02T01:13:10.037Z,34.39
2016-05-02T01:14:07.013Z,34.29
2016-05-02T01:15:06.803Z,34.29
2016-05-02T01:16:06.765Z,34.39
2016-05-02T01:17:06.868Z,34.29
2016-05-02T01:18:06.828Z,34.29
2016-05-02T01:19:06.786Z,34.39
2016-05-02T01:20:06.587Z,34.29
2016-05-02T01:21:06.717Z,34.39
2016-05-02T01:22:06.830Z,34.29
2016-05-02T01:23:09.648Z,34.29
2016-05-02T01:24:06.557Z,34.29
2016-05-02T01:25:06.701Z,34.29
2016-05-02T01:26:06.455Z,34.39
2016-05-02T01:27:06.411Z,34.29
2016-05-02T01:28:09.368Z,34.39
2016-05-02T01:29:06.511Z,34.29
2016-05-02T01:30:06.108Z,34.29
2016-05-02T01:31:06.220Z,34.39
2016-05-02T01:32:06.162Z,34.39
2016-05-02T01:33:06.320Z,34.39
2016-05-02T01:34:05.917Z,34.29
2016-05-02T01:35:06.014Z,34.29
2016-05-02T01:36:05.984Z,34.29
2016-05-02T01:37:05.941Z,34.39
2016-05-02T01:38:05.897Z,34.29
2016-05-02T01:39:05.822Z,34.2
2016-05-02T01:40:05.824Z,34.39
2016-05-02T01:41:05.733Z,34.29
2016-05-02T01:42:05.704Z,34.2
2016-05-02T01:43:05.628Z,34.39
2016-05-02T01:44:05.585Z,34.29
2016-05-02T01:45:05.541Z,34.39
2016-05-02T01:46:05.480Z,34.2
2016-05-02T01:47:05.280Z,34.29
2016-05-02T01:48:05.596Z,34.2
2016-05-02T01:49:05.348Z,34.2
2016-05-02T01:50:05.288Z,34.39
2016-05-02T01:51:05.838Z,34.39
2016-05-02T01:52:05.200Z,34.29
2016-05-02T01:53:08.140Z,34.29
2016-05-02T01:54:04.987Z,34.29
2016-05-02T01:55:05.051Z,34.2
2016-05-02T01:56:08.023Z,34.29
2016-05-02T01:57:04.807Z,34.29
2016-05-02T01:58:07.763Z,34.29
2016-05-02T01:59:04.703Z,34.39
2016-05-02T02:00:05.221Z,34.29
2016-05-02T02:01:04.771Z,34.2
2016-05-02T02:02:04.539Z,34.2
2016-05-02T02:03:07.682Z,34.29
2016-05-02T02:04:04.607Z,34.2
2016-05-02T02:05:04.562Z,34.39
2016-05-02T02:06:07.519Z,34.39
2016-05-02T02:07:04.475Z,34.2
2016-05-02T02:08:04.414Z,34.29
2016-05-02T02:09:04.370Z,34.29
2016-05-02T02:10:04.342Z,34.29
2016-05-02T02:11:07.282Z,34.29
2016-05-02T02:12:07.238Z,34.2
2016-05-02T02:13:04.178Z,34.29
2016-05-02T02:14:04.181Z,34.29
2016-05-02T02:15:04.277Z,34.29
2016-05-02T02:16:04.030Z,34.29
2016-05-02T02:17:03.969Z,34.29
2016-05-02T02:18:03.941Z,34.2
2016-05-02T02:19:03.913Z,34.2
2016-05-02T02:20:03.838Z,34.29
2016-05-02T02:21:04.730Z,34.2
2016-05-02T02:22:03.733Z,34.29
2016-05-02T02:23:03.768Z,34.29
2016-05-02T02:24:04.031Z,34.39
2016-05-02T02:25:06.465Z,34.29
2016-05-02T02:26:03.562Z,34.29
2016-05-02T02:27:06.538Z,34.29
2016-05-02T02:28:03.463Z,34.29
2016-05-02T02:29:03.404Z,34.39
2016-05-02T02:30:03.218Z,34.29
2016-05-02T02:31:03.299Z,34.29
2016-05-02T02:32:03.271Z,34.29
2016-05-02T02:33:03.212Z,34.29
2016-05-02T02:34:03.011Z,34.29
2016-05-02T02:35:03.123Z,34.39
2016-05-02T02:36:03.062Z,34.2
2016-05-02T02:37:03.019Z,34.29
2016-05-02T02:38:03.006Z,34.29
2016-05-02T02:39:05.914Z,34.29
2016-05-02T02:40:02.777Z,34.29
2016-05-02T02:41:02.826Z,34.29
2016-05-02T02:42:02.767Z,34.29
2016-05-02T02:43:02.722Z,34.39
2016-05-02T02:44:02.678Z,34.39
2016-05-02T02:45:02.618Z,34.39
2016-05-02T02:46:02.574Z,34.39
2016-05-02T02:47:05.764Z,34.39
2016-05-02T02:48:02.330Z,34.29
2016-05-02T02:49:02.285Z,34.2
2016-05-02T02:50:02.397Z,34.39
2016-05-02T02:51:02.338Z,34.39
2016-05-02T02:52:02.278Z,34.48
2016-05-02T02:53:02.249Z,34.48
2016-05-02T02:54:02.190Z,34.39
2016-05-02T02:55:02.146Z,34.48
2016-05-02T02:56:02.101Z,34.39
2016-05-02T02:57:02.041Z,34.67
2016-05-02T02:58:01.996Z,34.67
2016-05-02T02:59:01.968Z,34.58
2016-05-02T03:00:01.894Z,34.67
2016-05-02T03:01:01.849Z,34.67
2016-05-02T03:02:04.820Z,34.67
2016-05-02T03:03:04.839Z,34.58
2016-05-02T03:04:01.717Z,34.48
2016-05-02T03:05:01.641Z,34.58
2016-05-02T03:06:02.238Z,34.67
2016-05-02T03:07:01.553Z,34.48
2016-05-02T03:08:01.524Z,34.48
2016-05-02T03:09:01.465Z,34.48
2016-05-02T03:10:01.420Z,34.67
2016-05-02T03:11:01.376Z,34.67
2016-05-02T03:12:01.364Z,34.58
2016-05-02T03:13:01.288Z,34.77
2016-05-02T03:14:01.212Z,34.67
2016-05-02T03:15:01.011Z,34.67
2016-05-02T03:16:01.124Z,34.58
2016-05-02T03:17:01.080Z,34.67
2016-05-02T03:18:01.036Z,34.77
2016-05-02T03:19:00.991Z,34.58
2016-05-02T03:20:00.931Z,34.58
2016-05-02T03:21:00.887Z,34.58
2016-05-02T03:22:00.672Z,34.67
2016-05-02T03:23:00.783Z,34.67
2016-05-02T03:24:00.583Z,34.67
2016-05-02T03:25:00.679Z,34.67
2016-05-02T03:26:00.635Z,34.58
2016-05-02T03:27:00.591Z,34.77
2016-05-02T03:28:00.531Z,34.58
2016-05-02T03:29:00.502Z,34.58
2016-05-02T03:30:00.443Z,34.67
2016-05-02T03:31:00.399Z,34.77
2016-05-02T03:32:00.354Z,34.77
2016-05-02T03:33:00.341Z,34.67
2016-05-02T03:34:00.265Z,34.58
2016-05-02T03:35:00.206Z,34.87
2016-05-02T03:36:00.271Z,34.67
2016-05-02T03:37:03.149Z,34.77
2016-05-02T03:38:00.058Z,34.67
2016-05-02T03:39:00.014Z,34.67
2016-05-02T03:40:00.173Z,34.77
2016-05-02T03:40:59.769Z,34.67
2016-05-02T03:42:00.069Z,34.58
2016-05-02T03:42:59.805Z,34.77
2016-05-02T03:43:59.777Z,34.77
2016-05-02T03:44:59.733Z,34.77
2016-05-02T03:45:59.673Z,34.77
2016-05-02T03:46:59.629Z,34.58
2016-05-02T03:48:02.585Z,34.58
2016-05-02T03:48:59.525Z,34.58
2016-05-02T03:49:59.511Z,34.67
2016-05-02T03:51:01.155Z,34.58
2016-05-02T03:51:59.392Z,34.58
2016-05-02T03:52:59.317Z,34.58
2016-05-02T03:53:59.288Z,34.58
2016-05-02T03:54:59.088Z,34.58
2016-05-02T03:55:59.028Z,34.67
2016-05-02T03:56:59.141Z,34.58
2016-05-02T03:57:59.081Z,34.67
2016-05-02T03:58:59.036Z,34.58
2016-05-02T03:59:58.993Z,34.58
2016-05-02T04:00:58.948Z,34.58
2016-05-02T04:01:58.888Z,34.58
2016-05-02T04:02:58.907Z,34.67
2016-05-02T04:04:01.800Z,34.67
2016-05-02T04:04:58.599Z,34.67
2016-05-02T04:05:58.696Z,34.67
2016-05-02T04:06:58.668Z,34.58
2016-05-02T04:07:58.592Z,34.67
2016-05-02T04:08:58.392Z,34.58
2016-05-02T04:09:58.503Z,34.58
2016-05-02T04:10:58.475Z,34.67
2016-05-02T04:11:58.415Z,34.77
2016-05-02T04:13:01.199Z,34.58
2016-05-02T04:13:58.155Z,34.58
2016-05-02T04:14:58.267Z,34.58
2016-05-02T04:15:58.223Z,34.58
2016-05-02T04:16:58.178Z,34.67
2016-05-02T04:18:00.962Z,34.67
2016-05-02T04:18:58.387Z,34.67
2016-05-02T04:19:58.030Z,34.58
2016-05-02T04:20:58.002Z,34.67
2016-05-02T04:21:57.911Z,34.48
2016-05-02T04:22:57.882Z,34.67
2016-05-02T04:23:57.713Z,34.67
2016-05-02T04:24:57.763Z,34.67
2016-05-02T04:25:57.749Z,34.48
2016-05-02T04:27:03.533Z,34.48
2016-05-02T04:28:06.505Z,34.48
2016-05-02T04:28:57.585Z,34.48
2016-05-02T04:29:57.541Z,34.48
2016-05-02T04:30:57.482Z,34.48
2016-05-02T04:31:57.437Z,34.39
2016-05-02T04:32:57.393Z,34.58
2016-05-02T04:33:57.349Z,34.58
2016-05-02T04:35:00.321Z,34.58
2016-05-02T04:36:00.307Z,34.58
2016-05-02T04:36:57.201Z,34.48
2016-05-02T04:37:57.157Z,34.58
2016-05-02T04:38:56.957Z,34.58
2016-05-02T04:39:57.053Z,34.48
2016-05-02T04:40:57.070Z,34.58
2016-05-02T04:41:56.964Z,34.58
2016-05-02T04:42:56.921Z,34.48
2016-05-02T04:43:56.861Z,34.48
2016-05-02T04:44:56.817Z,34.58
2016-05-02T04:45:56.772Z,34.58
2016-05-02T04:46:56.712Z,34.48
2016-05-02T04:47:56.653Z,34.48
2016-05-02T04:48:56.624Z,34.58
2016-05-02T04:49:56.580Z,34.67
2016-05-02T04:50:56.536Z,34.48
2016-05-02T04:51:56.460Z,34.58
2016-05-02T04:52:59.447Z,34.58
2016-05-02T04:53:56.388Z,34.58
2016-05-02T04:54:56.171Z,34.67
2016-05-02T04:55:56.283Z,34.48
2016-05-02T04:56:56.239Z,34.39
2016-05-02T04:57:56.211Z,34.58
2016-05-02T04:58:59.166Z,34.77
2016-05-02T04:59:56.091Z,34.48
2016-05-02T05:00:56.032Z,34.58
2016-05-02T05:01:56.065Z,34.48
2016-05-02T05:02:55.927Z,34.77
2016-05-02T05:03:55.883Z,34.67
2016-05-02T05:04:55.838Z,34.58
2016-05-02T05:05:55.795Z,34.67
2016-05-02T05:06:55.641Z,34.67
2016-05-02T05:07:55.691Z,34.67
2016-05-02T05:08:55.647Z,34.58
2016-05-02T05:09:55.587Z,34.58
2016-05-02T05:10:55.559Z,34.67
2016-05-02T05:12:01.357Z,34.58
2016-05-02T05:12:55.454Z,34.67
2016-05-02T05:13:55.410Z,34.67
2016-05-02T05:14:55.866Z,34.67
2016-05-02T05:15:55.306Z,34.58
2016-05-02T05:16:55.246Z,34.67
2016-05-02T05:17:55.218Z,34.58
2016-05-02T05:18:55.173Z,34.48
2016-05-02T05:19:55.114Z,34.48
2016-05-02T05:20:55.069Z,34.48
2016-05-02T05:21:55.041Z,34.48
2016-05-02T05:22:54.966Z,34.58
2016-05-02T05:23:55.109Z,34.48
2016-05-02T05:24:57.877Z,34.48
2016-05-02T05:25:54.817Z,34.58
2016-05-02T05:26:57.773Z,34.67
2016-05-02T05:27:54.729Z,34.77
2016-05-02T05:28:54.685Z,34.67
2016-05-02T05:29:54.625Z,34.67
2016-05-02T05:30:54.581Z,34.67
2016-05-02T05:31:54.521Z,34.58
2016-05-02T05:32:54.477Z,34.58
2016-05-02T05:33:54.432Z,34.58
2016-05-02T05:34:54.388Z,34.48
2016-05-02T05:35:54.719Z,34.58
2016-05-02T05:36:54.284Z,34.58
2016-05-02T05:37:54.240Z,34.67
2016-05-02T05:38:54.196Z,34.77
2016-05-02T05:39:54.136Z,34.67
2016-05-02T05:40:54.093Z,34.96
2016-05-02T05:41:54.048Z,34.87
2016-05-02T05:42:53.987Z,34.87
2016-05-02T05:43:53.943Z,34.87
2016-05-02T05:44:53.900Z,34.77
2016-05-02T05:45:53.856Z,34.87
2016-05-02T05:46:53.826Z,34.87
2016-05-02T05:47:53.767Z,35.06
2016-05-02T05:48:53.692Z,34.96
2016-05-02T05:49:53.664Z,34.87
2016-05-02T05:50:53.478Z,34.96
2016-05-02T05:51:53.559Z,35.16
2016-05-02T05:52:53.514Z,34.96
2016-05-02T05:53:53.314Z,35.06
2016-05-02T05:54:53.411Z,34.96
2016-05-02T05:55:53.367Z,35.16
2016-05-02T05:56:53.323Z,34.77
2016-05-02T05:57:53.263Z,34.67
2016-05-02T05:58:53.218Z,35.44
2016-05-02T05:59:53.158Z,34.67
2016-05-02T06:00:53.114Z,35.53
2016-05-02T06:01:56.102Z,35.44
2016-05-02T06:02:53.244Z,34.87
2016-05-02T06:03:53.185Z,34.87
2016-05-02T06:04:52.969Z,34.96
2016-05-02T06:05:53.081Z,34.96
2016-05-02T06:06:52.834Z,34.96
2016-05-02T06:07:53.321Z,34.96
2016-05-02T06:08:55.746Z,35.53
2016-05-02T06:09:52.702Z,34.87
2016-05-02T06:10:52.626Z,35.44
2016-05-02T06:11:52.597Z,35.35
2016-05-02T06:12:55.568Z,34.87
2016-05-02T06:13:52.493Z,34.87
2016-05-02T06:14:52.448Z,35.44
2016-05-02T06:15:52.389Z,34.96
2016-05-02T06:16:52.345Z,34.96
2016-05-02T06:17:52.301Z,34.96
2016-05-02T06:18:52.100Z,34.77
2016-05-02T06:19:52.212Z,34.87
2016-05-02T06:20:52.355Z,34.87
2016-05-02T06:21:52.108Z,34.87
2016-05-02T06:22:52.131Z,34.87
2016-05-02T06:23:51.993Z,34.96
2016-05-02T06:24:51.966Z,34.87
2016-05-02T06:25:51.905Z,34.87
2016-05-02T06:26:51.861Z,35.25
2016-05-02T06:27:51.816Z,34.87
2016-05-02T06:28:51.757Z,35.25
2016-05-02T06:29:54.729Z,34.87
2016-05-02T06:30:51.888Z,34.96
2016-05-02T06:31:51.624Z,35.25
2016-05-02T06:32:51.565Z,34.77
2016-05-02T06:33:51.536Z,34.96
2016-05-02T06:34:51.320Z,34.87
2016-05-02T06:35:51.277Z,34.87
2016-05-02T06:36:51.388Z,34.87
2016-05-02T06:37:51.329Z,35.06
2016-05-02T06:38:51.284Z,34.96
2016-05-02T06:39:51.240Z,34.77
2016-05-02T06:40:51.196Z,35.06
2016-05-02T06:41:54.137Z,35.06
2016-05-02T06:42:51.107Z,35.06
2016-05-02T06:43:50.876Z,34.96
2016-05-02T06:44:50.987Z,35.25
2016-05-02T06:45:53.943Z,35.06
2016-05-02T06:46:50.899Z,35.16
2016-05-02T06:47:50.840Z,35.06
2016-05-02T06:48:50.795Z,35.16
2016-05-02T06:49:50.751Z,35.06
2016-05-02T06:50:50.723Z,35.16
2016-05-02T06:51:50.647Z,35.25
2016-05-02T06:52:50.461Z,35.16
2016-05-02T06:53:50.418Z,35.25
2016-05-02T06:54:53.577Z,35.25
2016-05-02T06:55:50.470Z,35.53
2016-05-02T06:56:50.410Z,35.53
2016-05-02T06:57:50.366Z,35.63
2016-05-02T06:58:50.322Z,35.63
2016-05-02T06:59:50.122Z,35.53
2016-05-02T07:00:53.062Z,35.44
2016-05-02T07:01:50.190Z,35.44
2016-05-02T07:02:50.193Z,35.53
2016-05-02T07:03:50.071Z,35.44
2016-05-02T07:04:50.041Z,35.35
2016-05-02T07:05:49.997Z,35.53
2016-05-02T07:06:49.938Z,35.35
2016-05-02T07:07:49.909Z,35.35
2016-05-02T07:08:49.693Z,35.44
2016-05-02T07:09:49.805Z,35.44
2016-05-02T07:10:49.760Z,35.53
2016-05-02T07:11:49.545Z,35.53
2016-05-02T07:12:49.641Z,35.35
2016-05-02T07:13:49.581Z,35.63
2016-05-02T07:14:49.537Z,35.44
2016-05-02T07:15:49.477Z,35.44
2016-05-02T07:16:49.449Z,35.44
2016-05-02T07:17:49.733Z,35.53
2016-05-02T07:18:49.392Z,35.63
2016-05-02T07:19:49.300Z,35.44
2016-05-02T07:20:49.100Z,35.44
2016-05-02T07:21:49.056Z,35.63
2016-05-02T07:22:49.152Z,35.53
2016-05-02T07:23:49.156Z,35.44
2016-05-02T07:24:49.080Z,35.44
2016-05-02T07:25:48.880Z,35.63
2016-05-02T07:26:48.992Z,35.63
2016-05-02T07:27:48.775Z,35.53
2016-05-02T07:28:48.888Z,35.63
2016-05-02T07:29:48.811Z,35.35
2016-05-02T07:30:49.049Z,35.53
2016-05-02T07:31:48.723Z,35.35
2016-05-02T07:32:48.694Z,35.53
2016-05-02T07:33:48.651Z,35.53
2016-05-02T07:34:48.591Z,35.53
2016-05-02T07:35:48.562Z,35.53
2016-05-02T07:36:48.487Z,35.63
2016-05-02T07:37:48.442Z,35.53
2016-05-02T07:38:51.415Z,35.53
2016-05-02T07:39:48.338Z,35.53
2016-05-02T07:40:48.279Z,35.53
2016-05-02T07:41:48.313Z,35.44
2016-05-02T07:42:48.207Z,35.53
2016-05-02T07:43:48.209Z,35.53
2016-05-02T07:44:48.102Z,35.53
2016-05-02T07:45:48.137Z,35.35
2016-05-02T07:46:48.014Z,35.35
2016-05-02T07:47:47.970Z,35.44
2016-05-02T07:48:47.941Z,35.44
2016-05-02T07:49:47.850Z,35.35
2016-05-02T07:50:47.806Z,35.44
2016-05-02T07:51:47.637Z,35.63
2016-05-02T07:52:47.717Z,35.63
2016-05-02T07:53:47.501Z,35.53
2016-05-02T07:54:47.628Z,35.63
2016-05-02T07:55:47.569Z,35.53
2016-05-02T07:56:47.509Z,35.44
2016-05-02T07:57:47.466Z,35.53
2016-05-02T07:58:47.577Z,35.53
2016-05-02T07:59:47.392Z,35.44
2016-05-02T08:00:47.333Z,35.44
2016-05-02T08:01:47.116Z,35.53
2016-05-02T08:02:47.229Z,35.53
2016-05-02T08:03:47.185Z,35.53
2016-05-02T08:04:47.140Z,35.35
2016-05-02T08:05:47.065Z,35.35
2016-05-02T08:06:47.021Z,35.35
2016-05-02T08:07:47.008Z,35.53
2016-05-02T08:08:46.949Z,35.53
2016-05-02T08:09:46.747Z,35.44
2016-05-02T08:10:46.860Z,35.63
2016-05-02T08:11:46.799Z,35.53
2016-05-02T08:12:46.584Z,35.63
2016-05-02T08:13:46.571Z,35.73
2016-05-02T08:14:46.652Z,35.63
2016-05-02T08:15:46.670Z,35.63
2016-05-02T08:16:46.609Z,35.53
2016-05-02T08:17:46.409Z,35.63
2016-05-02T08:18:46.459Z,35.63
2016-05-02T08:19:46.462Z,35.63
2016-05-02T08:20:46.356Z,35.83
2016-05-02T08:21:46.155Z,35.73
2016-05-02T08:22:46.282Z,35.73
2016-05-02T08:23:46.223Z,35.63
2016-05-02T08:24:46.022Z,35.73
2016-05-02T08:25:46.103Z,35.63
2016-05-02T08:26:46.059Z,35.53
2016-05-02T08:27:46.030Z,35.63
2016-05-02T08:28:48.970Z,35.63
2016-05-02T08:29:45.958Z,35.83
2016-05-02T08:30:45.913Z,35.73
2016-05-02T08:31:45.838Z,35.83
2016-05-02T08:32:45.872Z,35.83
2016-05-02T08:33:45.733Z,36.02
2016-05-02T08:34:45.705Z,35.63
2016-05-02T08:35:45.614Z,35.73
2016-05-02T08:36:45.820Z,35.73
2016-05-02T08:37:45.558Z,35.63
2016-05-02T08:38:45.482Z,35.73
2016-05-02T08:39:45.453Z,35.63
2016-05-02T08:40:45.377Z,35.73
2016-05-02T08:41:45.412Z,35.63
2016-05-02T08:42:48.290Z,35.63
2016-05-02T08:43:45.276Z,35.63
2016-05-02T08:44:45.185Z,35.73
2016-05-02T08:45:45.141Z,35.63
2016-05-02T08:46:45.098Z,35.63
2016-05-02T08:47:45.084Z,35.63
2016-05-02T08:48:44.993Z,35.63
2016-05-02T08:49:44.839Z,35.73
2016-05-02T08:50:44.920Z,35.63
2016-05-02T08:51:44.736Z,35.63
2016-05-02T08:52:44.817Z,35.73
2016-05-02T08:53:44.616Z,35.63
2016-05-02T08:54:44.727Z,35.63
2016-05-02T08:55:44.668Z,35.83
2016-05-02T08:56:44.687Z,35.73
2016-05-02T08:57:44.470Z,35.73
2016-05-02T08:58:44.505Z,35.63
2016-05-02T08:59:44.695Z,35.73
2016-05-02T09:00:44.431Z,35.92
2016-05-02T09:01:44.481Z,35.92
2016-05-02T09:02:44.344Z,35.92
2016-05-02T09:03:44.283Z,35.73
2016-05-02T09:04:44.271Z,35.83
2016-05-02T09:05:44.180Z,35.92
2016-05-02T09:06:44.682Z,35.92
2016-05-02T09:07:44.091Z,36.02
2016-05-02T09:08:44.125Z,35.73
2016-05-02T09:09:44.018Z,35.83
2016-05-02T09:10:43.787Z,35.92
2016-05-02T09:11:46.929Z,36.02
2016-05-02T09:12:43.854Z,35.83
2016-05-02T09:13:43.826Z,36.02
2016-05-02T09:14:43.968Z,35.92
2016-05-02T09:15:43.675Z,35.92
2016-05-02T09:16:43.662Z,36.02
2016-05-02T09:17:43.727Z,35.83
2016-05-02T09:18:43.604Z,36.02
2016-05-02T09:19:43.748Z,35.83
2016-05-02T09:20:43.454Z,36.11
2016-05-02T09:21:43.285Z,36.11
2016-05-02T09:22:43.365Z,36.11
2016-05-02T09:23:43.384Z,36.11
2016-05-02T09:24:43.261Z,35.92
2016-05-02T09:25:43.234Z,36.02
2016-05-02T09:26:43.158Z,36.21
2016-05-02T09:27:43.114Z,36.11
2016-05-02T09:28:43.054Z,36.21
2016-05-02T09:29:46.041Z,36.02
2016-05-02T09:30:42.996Z,35.92
2016-05-02T09:31:42.936Z,36.02
2016-05-02T09:32:42.737Z,36.3
2016-05-02T09:33:42.849Z,36.11
2016-05-02T09:34:42.772Z,36.11
2016-05-02T09:35:42.730Z,36.21
2016-05-02T09:36:42.669Z,36.02
2016-05-02T09:37:42.655Z,36.21
2016-05-02T09:38:42.597Z,36.11
2016-05-02T09:39:42.552Z,36.21
2016-05-02T09:40:42.601Z,36.11
2016-05-02T09:41:42.449Z,36.02
2016-05-02T09:42:42.263Z,36.21
2016-05-02T09:43:42.359Z,35.92
2016-05-02T09:44:42.285Z,36.11
2016-05-02T09:45:42.224Z,35.92
2016-05-02T09:46:42.196Z,35.92
2016-05-02T09:47:42.152Z,36.11
2016-05-02T09:48:42.092Z,36.11
2016-05-02T09:49:42.063Z,36.11
2016-05-02T09:50:42.003Z,36.21
2016-05-02T09:51:42.554Z,35.92
2016-05-02T09:52:41.728Z,36.11
2016-05-02T09:53:41.856Z,36.21
2016-05-02T09:54:41.795Z,36.02
2016-05-02T09:55:41.642Z,36.02
2016-05-02T09:56:41.706Z,36.11
2016-05-02T09:57:41.897Z,36.02
2016-05-02T09:58:41.650Z,36.02
2016-05-02T09:59:41.574Z,35.83
2016-05-02T10:00:41.514Z,35.92
2016-05-02T10:01:41.705Z,36.11
2016-05-02T10:02:44.598Z,36.11
2016-05-02T10:03:41.367Z,36.21
2016-05-02T10:04:41.416Z,35.92
2016-05-02T10:05:41.263Z,36.11
2016-05-02T10:06:42.265Z,36.02
2016-05-02T10:07:41.205Z,35.92
2016-05-02T10:08:41.163Z,36.11
2016-05-02T10:09:41.333Z,36.02
2016-05-02T10:10:40.988Z,36.11
2016-05-02T10:11:41.128Z,36.02
2016-05-02T10:12:41.205Z,36.21
2016-05-02T10:13:41.099Z,36.11
2016-05-02T10:14:41.258Z,36.02
2016-05-02T10:15:41.058Z,36.11
2016-05-02T10:16:44.029Z,36.11
2016-05-02T10:17:41.001Z,36.11
2016-05-02T10:18:40.937Z,36.02
2016-05-02T10:19:40.891Z,36.21
2016-05-02T10:20:40.867Z,36.02
2016-05-02T10:21:40.658Z,36.02
2016-05-02T10:22:40.791Z,36.02
2016-05-02T10:23:40.721Z,36.02
2016-05-02T10:24:40.649Z,36.21
2016-05-02T10:25:40.623Z,36.11
2016-05-02T10:26:40.597Z,36.21
2016-05-02T10:27:40.696Z,35.92
2016-05-02T10:28:40.512Z,36.11
2016-05-02T10:29:40.439Z,36.21
2016-05-02T10:30:40.395Z,36.11
2016-05-02T10:31:40.445Z,36.11
2016-05-02T10:32:40.308Z,36.3
2016-05-02T10:33:40.249Z,36.11
2016-05-02T10:34:40.205Z,36.11
2016-05-02T10:35:40.255Z,36.02
2016-05-02T10:36:40.163Z,36.11
2016-05-02T10:37:39.980Z,36.11
2016-05-02T10:38:40.028Z,36.11
2016-05-02T10:39:39.969Z,36.02
2016-05-02T10:40:40.002Z,36.02
2016-05-02T10:41:39.724Z,35.92
2016-05-02T10:42:39.821Z,36.11
2016-05-02T10:43:39.792Z,36.11
2016-05-02T10:44:39.748Z,35.92
2016-05-02T10:45:39.501Z,36.21
2016-05-02T10:46:39.628Z,35.83
2016-05-02T10:47:39.552Z,36.11
2016-05-02T10:48:39.711Z,35.92
2016-05-02T10:49:39.730Z,36.3
2016-05-02T10:50:39.435Z,36.11
2016-05-02T10:51:39.642Z,36.59
2016-05-02T10:52:39.347Z,36.49
2016-05-02T10:53:39.287Z,36.4
2016-05-02T10:54:39.321Z,36.21
2016-05-02T10:55:39.183Z,36.3
2016-05-02T10:56:39.139Z,36.4
2016-05-02T10:57:39.079Z,36.4
2016-05-02T10:58:39.051Z,36.49
2016-05-02T10:59:39.210Z,36.21
2016-05-02T11:00:41.947Z,36.49
2016-05-02T11:01:38.934Z,36.4
2016-05-02T11:02:38.936Z,36.21
2016-05-02T11:03:38.877Z,36.4
2016-05-02T11:04:38.614Z,36.49
2016-05-02T11:05:38.711Z,36.69
2016-05-02T11:06:38.636Z,36.69
2016-05-02T11:07:38.606Z,36.69
2016-05-02T11:08:38.563Z,36.79
2016-05-02T11:09:38.502Z,36.69
2016-05-02T11:10:38.302Z,36.59
2016-05-02T11:11:38.413Z,36.3
2016-05-02T11:12:38.401Z,36.88
2016-05-02T11:13:38.342Z,36.79
2016-05-02T11:14:38.250Z,36.88
2016-05-02T11:15:38.222Z,36.88
2016-05-02T11:16:38.177Z,36.3
2016-05-02T11:17:38.227Z,36.3
2016-05-02T11:18:38.074Z,36.4
2016-05-02T11:19:37.857Z,36.59
2016-05-02T11:20:37.970Z,36.69
2016-05-02T11:21:37.785Z,36.88
2016-05-02T11:22:37.881Z,36.79
2016-05-02T11:23:37.829Z,36.49
2016-05-02T11:24:37.785Z,36.59
2016-05-02T11:25:37.569Z,36.49
2016-05-02T11:26:37.665Z,36.49
2016-05-02T11:27:37.481Z,36.4
2016-05-02T11:28:37.561Z,36.59
2016-05-02T11:29:37.611Z,36.21
2016-05-02T11:30:37.551Z,36.3
2016-05-02T11:31:37.428Z,36.49
2016-05-02T11:32:37.370Z,36.4
2016-05-02T11:33:37.200Z,36.69
2016-05-02T11:34:37.328Z,36.59
2016-05-02T11:35:37.330Z,36.59
2016-05-02T11:36:37.833Z,36.59
2016-05-02T11:37:37.133Z,36.4
2016-05-02T11:38:37.104Z,36.4
2016-05-02T11:39:37.044Z,36.21
2016-05-02T11:40:37.031Z,36.49
2016-05-02T11:41:36.956Z,36.49
2016-05-02T11:42:36.911Z,36.4
2016-05-02T11:43:36.866Z,36.59
2016-05-02T11:44:36.808Z,36.49
2016-05-02T11:45:36.747Z,36.4
2016-05-02T11:46:36.782Z,36.59
2016-05-02T11:47:36.660Z,36.4
2016-05-02T11:48:36.615Z,36.4
2016-05-02T11:49:36.571Z,36.49
2016-05-02T11:50:36.543Z,36.49
2016-05-02T11:51:36.467Z,36.49
2016-05-02T11:52:36.485Z,36.49
2016-05-02T11:53:36.363Z,36.59
2016-05-02T11:54:36.318Z,36.49
2016-05-02T11:55:36.274Z,36.69
2016-05-02T11:56:36.215Z,36.49
2016-05-02T11:57:36.186Z,36.3
2016-05-02T11:58:36.142Z,36.4
2016-05-02T11:59:36.114Z,36.3
2016-05-02T12:00:36.054Z,36.49
2016-05-02T12:01:35.994Z,36.3
2016-05-02T12:02:35.934Z,36.3
2016-05-02T12:03:35.890Z,36.3
2016-05-02T12:04:35.846Z,36.21
2016-05-02T12:05:35.786Z,36.11
2016-05-02T12:06:36.336Z,36.3
2016-05-02T12:07:35.729Z,36.4
2016-05-02T12:08:35.639Z,36.4
2016-05-02T12:09:35.625Z,36.4
2016-05-02T12:10:35.565Z,36.59
2016-05-02T12:11:35.599Z,36.49
2016-05-02T12:12:35.461Z,36.4
2016-05-02T12:13:35.402Z,36.49
2016-05-02T12:14:35.373Z,36.49
2016-05-02T12:15:35.344Z,36.79
2016-05-02T12:16:35.268Z,36.69
2016-05-02T12:17:35.224Z,36.88
2016-05-02T12:18:35.196Z,36.98
2016-05-02T12:19:35.136Z,37.36
2016-05-02T12:20:35.061Z,37.26
2016-05-02T12:21:37.954Z,36.79
2016-05-02T12:22:35.004Z,36.88
2016-05-02T12:23:34.771Z,36.49
2016-05-02T12:24:34.759Z,36.49
2016-05-02T12:25:35.136Z,36.49
2016-05-02T12:26:34.905Z,36.3
2016-05-02T12:27:34.751Z,36.4
2016-05-02T12:28:34.848Z,36.11
2016-05-02T12:29:34.631Z,36.11
2016-05-02T12:30:34.556Z,36.11
2016-05-02T12:31:37.543Z,36.11
2016-05-02T12:32:34.498Z,36.21
2016-05-02T12:33:34.456Z,36.49
2016-05-02T12:34:34.551Z,36.21
2016-05-02T12:35:34.397Z,36.4
2016-05-02T12:36:37.417Z,36.3
2016-05-02T12:37:34.247Z,36.69
2016-05-02T12:38:34.047Z,36.69
2016-05-02T12:39:34.222Z,36.59
2016-05-02T12:40:34.099Z,36.79
2016-05-02T12:41:34.367Z,36.88
2016-05-02T12:42:34.338Z,36.69
2016-05-02T12:43:33.966Z,37.07
2016-05-02T12:44:33.922Z,37.07
2016-05-02T12:45:33.863Z,36.88
2016-05-02T12:46:34.036Z,36.88
2016-05-02T12:47:33.758Z,36.88
2016-05-02T12:48:33.713Z,36.69
2016-05-02T12:49:33.655Z,36.69
2016-05-02T12:50:33.610Z,36.69
2016-05-02T12:51:33.832Z,36.69
2016-05-02T12:52:33.538Z,36.69
2016-05-02T12:53:33.477Z,36.88